createdAt,value
2023-04-09T00:02:04.923Z,99015.28
2023-04-09T00:04:32.003Z,99016.13
2023-04-09T00:06:59.006Z,99005.25
2023-04-09T00:09:26.167Z,99005.41
2023-04-09T00:11:53.147Z,99000.25
2023-04-09T00:14:20.141Z,99006.41
2023-04-09T00:16:47.066Z,98991.88
2023-04-09T00:19:14.112Z,98999.94
2023-04-09T00:21:41.196Z,99000.72
2023-04-09T00:24:08.453Z,98996.06
2023-04-09T00:26:35.795Z,98997.06
2023-04-09T00:29:02.940Z,98992.81
2023-04-09T00:31:30.161Z,99000.00
2023-04-09T00:33:57.213Z,98997.25
2023-04-09T00:36:26.594Z,98991.94
2023-04-09T00:38:54.279Z,98999.38
2023-04-09T00:41:21.463Z,98998.16
2023-04-09T00:43:48.391Z,99001.50
2023-04-09T00:46:16.343Z,99005.03
2023-04-09T00:48:43.558Z,99007.63
2023-04-09T00:51:10.484Z,99010.13
2023-04-09T00:53:37.506Z,99002.00
2023-04-09T00:56:05.283Z,99013.44
2023-04-09T00:58:32.298Z,98999.09
2023-04-09T01:00:59.337Z,99005.41
2023-04-09T01:03:26.520Z,99009.81
2023-04-09T01:06:42.416Z,99006.25
2023-04-09T01:09:50.981Z,99007.13
2023-04-09T01:12:51.398Z,99009.25
2023-04-09T01:15:26.982Z,99012.03
2023-04-09T01:18:13.909Z,99006.78
2023-04-09T01:20:53.858Z,99004.34
2023-04-09T01:23:35.988Z,99002.56
2023-04-09T01:26:19.514Z,98995.50
2023-04-09T01:28:56.423Z,99004.50
2023-04-09T01:31:36.953Z,98997.53
2023-04-09T01:34:05.510Z,99001.00
2023-04-09T01:36:33.560Z,98996.75
2023-04-09T01:39:02.403Z,98992.06
2023-04-09T01:41:32.916Z,98993.13
2023-04-09T01:44:02.482Z,99002.94
2023-04-09T01:46:31.235Z,98994.47
2023-04-09T01:48:58.795Z,98998.38
2023-04-09T01:51:27.494Z,98998.94
2023-04-09T01:53:54.465Z,98991.84
2023-04-09T01:56:21.597Z,98995.25
2023-04-09T01:58:48.532Z,98998.00
2023-04-09T02:01:32.177Z,98996.25
2023-04-09T02:04:04.638Z,98998.31
2023-04-09T02:06:50.593Z,98991.28
2023-04-09T02:09:20.615Z,99002.88
2023-04-09T02:11:50.336Z,99002.25
2023-04-09T02:14:20.572Z,99005.03
2023-04-09T02:16:48.605Z,98998.63
2023-04-09T02:19:15.732Z,99000.16
2023-04-09T02:21:42.756Z,99002.41
2023-04-09T02:24:09.792Z,98996.47
2023-04-09T02:26:36.742Z,98991.91
2023-04-09T02:29:03.866Z,98991.78
2023-04-09T02:31:31.121Z,99001.25
2023-04-09T02:33:58.198Z,98994.41
2023-04-09T02:36:25.942Z,98996.31
2023-04-09T02:38:53.055Z,99001.16
2023-04-09T02:41:21.011Z,98995.69
2023-04-09T02:43:48.053Z,98994.22
2023-04-09T02:46:14.974Z,98998.94
2023-04-09T02:48:41.986Z,98999.38
2023-04-09T02:51:08.937Z,98990.81
2023-04-09T02:53:37.651Z,98993.44
2023-04-09T02:56:04.967Z,98995.28
2023-04-09T02:58:32.009Z,98998.06
2023-04-09T03:00:58.970Z,98995.50
2023-04-09T03:03:26.351Z,98994.44
2023-04-09T03:05:53.366Z,98992.38
2023-04-09T03:08:20.530Z,98989.81
2023-04-09T03:10:47.549Z,98984.94
2023-04-09T03:13:14.528Z,98985.25
2023-04-09T03:15:41.701Z,98984.66
2023-04-09T03:18:08.877Z,98981.84
2023-04-09T03:20:39.492Z,98973.97
2023-04-09T03:23:08.548Z,98985.69
2023-04-09T03:25:40.670Z,98976.81
2023-04-09T03:28:12.552Z,98971.81
2023-04-09T03:30:43.445Z,98977.19
2023-04-09T03:33:10.446Z,98973.81
2023-04-09T03:35:47.925Z,98971.44
2023-04-09T03:38:16.255Z,98972.59
2023-04-09T03:40:43.330Z,98975.44
2023-04-09T03:43:10.518Z,98979.22
2023-04-09T03:45:39.885Z,98975.47
2023-04-09T03:48:20.377Z,98979.34
2023-04-09T03:50:47.519Z,98972.91
2023-04-09T03:53:19.302Z,98981.03
2023-04-09T03:55:46.437Z,98980.25
2023-04-09T03:58:20.572Z,98982.09
2023-04-09T04:00:48.736Z,98984.47
2023-04-09T04:03:32.161Z,98975.72
2023-04-09T04:06:09.476Z,98973.38
2023-04-09T04:08:59.273Z,98976.09
2023-04-09T04:11:35.832Z,98974.53
2023-04-09T04:14:02.951Z,98978.41
2023-04-09T04:16:30.024Z,98974.94
2023-04-09T04:18:57.386Z,98979.94
2023-04-09T04:21:24.854Z,98982.97
2023-04-09T04:23:58.890Z,98984.75
2023-04-09T04:26:28.577Z,98983.34
2023-04-09T04:28:56.031Z,98983.63
2023-04-09T04:31:43.305Z,98983.69
2023-04-09T04:34:11.153Z,98996.34
2023-04-09T04:36:39.010Z,98998.28
2023-04-09T04:39:07.436Z,98996.13
2023-04-09T04:41:48.573Z,98999.75
2023-04-09T04:44:20.949Z,99002.00
2023-04-09T04:46:51.329Z,99008.88
2023-04-09T04:49:18.366Z,99003.00
2023-04-09T04:51:47.777Z,98996.94
2023-04-09T04:54:16.398Z,99002.63
2023-04-09T04:56:51.132Z,99002.44
2023-04-09T04:59:31.625Z,98998.53
2023-04-09T05:02:02.730Z,99001.31
2023-04-09T05:04:34.527Z,99005.53
2023-04-09T05:07:02.201Z,99001.75
2023-04-09T05:09:29.314Z,99002.31
2023-04-09T05:12:01.297Z,99005.88
2023-04-09T05:14:28.656Z,99007.41
2023-04-09T05:16:55.750Z,99004.41
2023-04-09T05:19:26.514Z,99000.47
2023-04-09T05:22:00.490Z,99003.63
2023-04-09T05:24:27.437Z,98999.63
2023-04-09T05:26:55.042Z,99006.94
2023-04-09T05:29:22.566Z,99006.03
2023-04-09T05:31:49.554Z,99007.28
2023-04-09T05:34:28.102Z,98995.56
2023-04-09T05:36:56.743Z,98995.91
2023-04-09T05:39:25.335Z,99011.22
2023-04-09T05:41:52.932Z,99028.16
2023-04-09T05:44:19.933Z,99031.63
2023-04-09T05:46:47.966Z,99040.81
2023-04-09T05:49:19.063Z,99040.41
2023-04-09T05:51:50.773Z,99061.84
2023-04-09T05:54:23.913Z,99049.38
2023-04-09T05:56:52.455Z,99055.69
2023-04-09T05:59:19.983Z,99050.44
2023-04-09T06:01:47.054Z,99044.09
2023-04-09T06:04:14.300Z,99050.78
2023-04-09T06:06:41.471Z,99052.31
2023-04-09T06:09:08.465Z,99043.25
2023-04-09T06:11:38.443Z,99044.44
2023-04-09T06:14:05.496Z,99052.84
2023-04-09T06:16:33.589Z,99043.34
2023-04-09T06:19:00.706Z,99042.78
2023-04-09T06:21:27.940Z,99053.88
2023-04-09T06:23:55.100Z,99046.78
2023-04-09T06:26:22.146Z,99042.41
2023-04-09T06:28:49.063Z,99037.38
2023-04-09T06:31:16.385Z,99046.88
2023-04-09T06:33:43.335Z,99045.13
2023-04-09T06:36:10.933Z,99043.75
2023-04-09T06:38:37.969Z,99047.59
2023-04-09T06:41:08.355Z,99038.94
2023-04-09T06:43:36.930Z,99033.41
2023-04-09T06:46:03.888Z,99042.13
2023-04-09T06:48:31.387Z,99045.56
2023-04-09T06:50:58.392Z,99042.03
2023-04-09T06:53:25.403Z,99034.41
2023-04-09T06:55:52.744Z,99036.75
2023-04-09T06:58:21.033Z,99040.25
2023-04-09T07:00:47.982Z,99057.00
2023-04-09T07:03:15.688Z,99076.59
2023-04-09T07:05:43.272Z,99066.88
2023-04-09T07:08:11.713Z,99061.81
2023-04-09T07:10:39.323Z,99067.81
2023-04-09T07:13:06.747Z,99078.28
2023-04-09T07:15:34.089Z,99079.53
2023-04-09T07:18:01.460Z,99089.13
2023-04-09T07:20:28.814Z,99087.78
2023-04-09T07:22:56.232Z,99083.09
2023-04-09T07:25:23.886Z,99091.28
2023-04-09T07:27:51.277Z,99091.31
2023-04-09T07:30:18.868Z,99085.03
2023-04-09T07:32:46.303Z,99084.50
2023-04-09T07:35:13.663Z,99088.34
2023-04-09T07:37:41.076Z,99093.09
2023-04-09T07:40:08.985Z,99090.22
2023-04-09T07:42:39.072Z,99085.09
2023-04-09T07:45:07.413Z,99091.56
2023-04-09T07:47:34.861Z,99087.41
2023-04-09T07:50:02.519Z,99078.38
2023-04-09T07:52:29.986Z,99081.91
2023-04-09T07:54:57.920Z,99082.13
2023-04-09T07:57:25.354Z,99075.47
2023-04-09T07:59:53.978Z,99082.75
2023-04-09T08:02:21.438Z,99088.06
2023-04-09T08:04:49.025Z,99087.41
2023-04-09T08:07:16.489Z,99080.34
2023-04-09T08:09:43.858Z,99082.78
2023-04-09T08:12:11.272Z,99079.75
2023-04-09T08:14:38.639Z,99075.03
2023-04-09T08:17:06.086Z,99075.78
2023-04-09T08:19:33.592Z,99074.38
2023-04-09T08:22:02.107Z,99081.38
2023-04-09T08:24:29.552Z,99077.25
2023-04-09T08:26:58.576Z,99070.38
2023-04-09T08:29:26.698Z,99090.66
2023-04-09T08:31:54.145Z,99081.50
2023-04-09T08:34:22.145Z,99081.16
2023-04-09T08:36:49.921Z,99077.13
2023-04-09T08:39:20.866Z,99080.44
2023-04-09T08:41:48.400Z,99092.09
2023-04-09T08:44:16.746Z,99087.97
2023-04-09T08:46:44.713Z,99086.84
2023-04-09T08:49:12.907Z,99094.56
2023-04-09T08:51:44.462Z,99098.84
2023-04-09T08:54:16.147Z,99096.25
2023-04-09T08:56:43.863Z,99094.03
2023-04-09T08:59:11.220Z,99095.22
2023-04-09T09:01:38.658Z,99090.41
2023-04-09T09:04:10.005Z,99089.81
2023-04-09T09:06:39.543Z,99098.31
2023-04-09T09:09:13.635Z,99098.50
2023-04-09T09:11:45.831Z,99096.72
2023-04-09T09:14:15.471Z,99101.63
2023-04-09T09:16:55.729Z,99101.78
2023-04-09T09:19:26.047Z,99093.16
2023-04-09T09:21:57.908Z,99097.66
2023-04-09T09:24:25.323Z,99098.16
2023-04-09T09:26:54.476Z,99099.81
2023-04-09T09:29:22.083Z,99105.03
2023-04-09T09:31:51.152Z,99094.66
2023-04-09T09:34:20.314Z,99103.72
2023-04-09T09:36:48.003Z,99094.16
2023-04-09T09:39:17.464Z,99096.22
2023-04-09T09:41:46.029Z,99092.34
2023-04-09T09:44:31.214Z,99090.31
2023-04-09T09:46:59.604Z,99094.16
2023-04-09T09:49:27.249Z,99099.63
2023-04-09T09:51:57.935Z,99096.69
2023-04-09T09:54:26.273Z,99100.19
2023-04-09T09:56:58.393Z,99093.66
2023-04-09T09:59:32.316Z,99096.00
2023-04-09T10:02:06.039Z,99095.38
2023-04-09T10:04:38.569Z,99086.31
2023-04-09T10:07:08.210Z,99085.75
2023-04-09T10:09:53.255Z,99083.81
2023-04-09T10:12:23.885Z,99085.88
2023-04-09T10:14:55.791Z,99079.97
2023-04-09T10:17:23.121Z,99084.78
2023-04-09T10:20:11.563Z,99079.50
2023-04-09T10:22:39.327Z,99077.56
2023-04-09T10:25:07.240Z,99062.44
2023-04-09T10:27:34.664Z,99067.00
2023-04-09T10:30:02.699Z,99069.75
2023-04-09T10:32:36.139Z,99072.63
2023-04-09T10:35:04.464Z,99075.28
2023-04-09T10:37:32.093Z,99072.56
2023-04-09T10:39:59.542Z,99082.13
2023-04-09T10:42:41.931Z,99065.56
2023-04-09T10:45:14.015Z,99061.41
2023-04-09T10:47:43.072Z,99056.84
2023-04-09T10:50:19.878Z,99053.97
2023-04-09T10:52:48.653Z,99057.38
2023-04-09T10:55:38.522Z,99051.59
2023-04-09T10:58:13.189Z,99049.72
2023-04-09T11:00:45.341Z,99060.47
2023-04-09T11:03:44.071Z,99055.59
2023-04-09T11:06:11.693Z,99048.56
2023-04-09T11:08:39.524Z,99037.31
2023-04-09T11:11:06.965Z,99048.00
2023-04-09T11:13:34.611Z,99047.78
2023-04-09T11:16:06.559Z,99045.84
2023-04-09T11:18:36.951Z,99050.63
2023-04-09T11:21:04.618Z,99046.59
2023-04-09T11:23:33.072Z,99033.97
2023-04-09T11:26:01.794Z,99036.44
2023-04-09T11:28:29.166Z,99025.75
2023-04-09T11:30:56.494Z,99028.66
2023-04-09T11:33:23.861Z,99032.03
2023-04-09T11:35:51.855Z,99034.53
2023-04-09T11:38:19.275Z,99032.66
2023-04-09T11:40:48.677Z,99032.53
2023-04-09T11:43:17.104Z,99028.47
2023-04-09T11:45:47.082Z,99020.94
2023-04-09T11:48:15.132Z,99005.44
2023-04-09T11:50:42.589Z,99013.81
2023-04-09T11:53:23.075Z,99023.31
2023-04-09T11:55:51.871Z,99023.84
2023-04-09T11:58:22.245Z,99033.94
2023-04-09T12:00:52.301Z,99028.13
2023-04-09T12:03:19.657Z,99028.81
2023-04-09T12:05:50.922Z,99025.47
2023-04-09T12:08:24.979Z,99030.13
2023-04-09T12:10:53.887Z,99022.13
2023-04-09T12:13:21.233Z,99022.66
2023-04-09T12:15:50.074Z,99005.38
2023-04-09T12:18:17.169Z,99011.03
2023-04-09T12:20:47.488Z,99012.75
2023-04-09T12:23:14.690Z,99011.00
2023-04-09T12:25:46.635Z,99005.81
2023-04-09T12:28:16.672Z,99002.47
2023-04-09T12:30:44.440Z,99009.38
2023-04-09T12:33:11.678Z,99021.25
2023-04-09T12:35:39.018Z,99012.22
2023-04-09T12:38:06.383Z,99019.03
2023-04-09T12:40:33.933Z,99019.41
2023-04-09T12:43:01.456Z,99017.09
2023-04-09T12:45:29.680Z,99012.31
2023-04-09T12:47:56.978Z,99011.63
2023-04-09T12:50:24.343Z,99017.00
2023-04-09T12:52:51.517Z,99014.34
2023-04-09T12:55:18.589Z,99021.09
2023-04-09T12:57:49.307Z,99008.69
2023-04-09T13:00:16.469Z,99005.50
2023-04-09T13:02:43.697Z,98999.06
2023-04-09T13:05:10.990Z,99008.91
2023-04-09T13:07:37.965Z,98996.34
2023-04-09T13:10:05.463Z,98999.59
2023-04-09T13:12:32.554Z,98996.41
2023-04-09T13:14:59.493Z,98992.59
2023-04-09T13:17:26.658Z,98986.22
2023-04-09T13:19:53.819Z,98989.66
2023-04-09T13:22:21.102Z,98979.78
2023-04-09T13:24:48.090Z,98979.84
2023-04-09T13:27:16.504Z,98974.78
2023-04-09T13:29:43.551Z,98970.44
2023-04-09T13:32:11.292Z,98974.66
2023-04-09T13:34:39.736Z,98969.09
2023-04-09T13:37:07.211Z,98975.31
2023-04-09T13:39:34.264Z,98974.78
2023-04-09T13:42:05.431Z,98975.78
2023-04-09T13:44:37.072Z,98965.19
2023-04-09T13:47:04.044Z,98969.69
2023-04-09T13:49:31.090Z,98960.53
2023-04-09T13:51:59.023Z,98961.38
2023-04-09T13:54:25.971Z,98959.94
2023-04-09T13:56:52.916Z,98954.28
2023-04-09T13:59:19.986Z,98959.41
2023-04-09T14:01:47.216Z,98963.00
2023-04-09T14:04:14.359Z,98959.44
2023-04-09T14:06:42.401Z,98956.47
2023-04-09T14:09:10.460Z,98942.97
2023-04-09T14:11:37.831Z,98939.31
2023-04-09T14:14:05.641Z,98939.38
2023-04-09T14:16:32.774Z,98937.34
2023-04-09T14:18:59.787Z,98941.78
2023-04-09T14:21:27.049Z,98934.63
2023-04-09T14:23:54.121Z,98940.75
2023-04-09T14:26:22.931Z,98930.97
2023-04-09T14:28:51.704Z,98929.41
2023-04-09T14:31:21.443Z,98924.59
2023-04-09T14:33:49.181Z,98925.88
2023-04-09T14:36:16.740Z,98926.94
2023-04-09T14:38:43.871Z,98930.34
2023-04-09T14:41:10.885Z,98930.47
2023-04-09T14:43:37.915Z,98929.06
2023-04-09T14:46:06.472Z,98930.22
2023-04-09T14:48:34.333Z,98929.16
2023-04-09T14:51:01.347Z,98939.94
2023-04-09T14:53:28.294Z,98927.16
2023-04-09T14:55:55.265Z,98926.13
2023-04-09T14:58:22.295Z,98922.53
2023-04-09T15:00:50.347Z,98922.09
2023-04-09T15:03:17.902Z,98914.09
2023-04-09T15:05:46.001Z,98924.25
2023-04-09T15:08:13.901Z,98924.84
2023-04-09T15:10:40.860Z,98921.47
2023-04-09T15:13:07.848Z,98922.13
2023-04-09T15:15:35.007Z,98927.72
2023-04-09T15:18:05.859Z,98922.56
2023-04-09T15:20:37.780Z,98922.97
2023-04-09T15:23:04.755Z,98914.50
2023-04-09T15:25:32.737Z,98915.94
2023-04-09T15:27:59.810Z,98916.78
2023-04-09T15:30:26.924Z,98925.59
2023-04-09T15:32:54.007Z,98919.91
2023-04-09T15:35:25.247Z,98919.19
2023-04-09T15:37:52.446Z,98919.53
2023-04-09T15:40:20.450Z,98922.50
2023-04-09T15:42:47.443Z,98914.91
2023-04-09T15:45:18.076Z,98923.03
2023-04-09T15:47:46.047Z,98922.34
2023-04-09T15:50:13.911Z,98918.91
2023-04-09T15:52:41.199Z,98917.50
2023-04-09T15:55:09.101Z,98918.78
2023-04-09T15:57:36.462Z,98914.13
2023-04-09T16:00:03.867Z,98912.56
2023-04-09T16:02:32.143Z,98916.31
2023-04-09T16:04:59.178Z,98911.75
2023-04-09T16:07:26.669Z,98916.22
2023-04-09T16:09:53.612Z,98911.16
2023-04-09T16:12:20.619Z,98902.56
2023-04-09T16:14:47.619Z,98900.88
2023-04-09T16:17:14.590Z,98904.59
2023-04-09T16:19:43.002Z,98896.38
2023-04-09T16:22:10.482Z,98900.97
2023-04-09T16:24:37.568Z,98900.44
2023-04-09T16:27:04.628Z,98905.84
2023-04-09T16:29:31.610Z,98908.09
2023-04-09T16:31:58.641Z,98907.84
2023-04-09T16:34:25.682Z,98913.25
2023-04-09T16:36:52.746Z,98916.38
2023-04-09T16:39:19.801Z,98916.91
2023-04-09T16:41:46.760Z,98916.53
2023-04-09T16:44:13.895Z,98910.28
2023-04-09T16:46:40.967Z,98916.91
2023-04-09T16:49:08.028Z,98919.13
2023-04-09T16:51:35.175Z,98910.22
2023-04-09T16:54:02.135Z,98919.41
2023-04-09T16:56:29.169Z,98915.03
2023-04-09T16:58:56.256Z,98906.75
2023-04-09T17:01:23.254Z,98915.16
2023-04-09T17:03:50.516Z,98917.06
2023-04-09T17:06:18.031Z,98916.03
2023-04-09T17:08:45.703Z,98919.41
2023-04-09T17:11:17.089Z,98923.25
2023-04-09T17:13:44.104Z,98915.06
2023-04-09T17:16:11.828Z,98930.50
2023-04-09T17:18:39.061Z,98923.13
2023-04-09T17:21:06.808Z,98931.94
2023-04-09T17:23:33.742Z,98924.72
2023-04-09T17:26:01.678Z,98927.13
2023-04-09T17:28:28.675Z,98929.28
2023-04-09T17:30:55.734Z,98936.72
2023-04-09T17:33:22.753Z,98940.78
2023-04-09T17:35:49.773Z,98945.25
2023-04-09T17:38:21.417Z,98939.06
2023-04-09T17:40:48.590Z,98945.66
2023-04-09T17:43:15.670Z,98938.53
2023-04-09T17:45:42.652Z,98941.94
2023-04-09T17:48:09.804Z,98942.22
2023-04-09T17:50:39.621Z,98940.94
2023-04-09T17:53:06.629Z,98946.53
2023-04-09T17:55:33.681Z,98947.03
2023-04-09T17:58:00.780Z,98945.78
2023-04-09T18:00:27.955Z,98949.22
2023-04-09T18:02:56.230Z,98946.63
2023-04-09T18:05:23.564Z,98950.81
2023-04-09T18:07:51.665Z,98955.50
2023-04-09T18:10:19.589Z,98961.00
2023-04-09T18:12:46.635Z,98962.47
2023-04-09T18:15:13.752Z,98969.22
2023-04-09T18:17:40.798Z,98977.06
2023-04-09T18:20:08.331Z,98977.38
2023-04-09T18:22:35.389Z,98978.09
2023-04-09T18:25:02.582Z,98978.84
2023-04-09T18:27:29.688Z,98972.50
2023-04-09T18:29:56.684Z,98974.00
2023-04-09T18:32:25.235Z,98970.94
2023-04-09T18:34:52.900Z,98972.22
2023-04-09T18:37:21.020Z,98979.19
2023-04-09T18:39:48.020Z,98972.19
2023-04-09T18:42:14.985Z,98978.72
2023-04-09T18:44:42.408Z,98979.72
2023-04-09T18:47:10.551Z,98983.88
2023-04-09T18:49:37.635Z,98993.03
2023-04-09T18:52:09.157Z,99002.22
2023-04-09T18:54:37.455Z,99008.91
2023-04-09T18:57:04.647Z,99008.94
2023-04-09T18:59:34.598Z,99012.22
2023-04-09T19:02:05.729Z,99027.63
2023-04-09T19:04:36.464Z,99027.91
2023-04-09T19:07:03.804Z,99036.66
2023-04-09T19:09:32.086Z,99034.88
2023-04-09T19:11:59.095Z,99042.00
2023-04-09T19:14:26.179Z,99041.56
2023-04-09T19:16:53.646Z,99039.13
2023-04-09T19:19:20.635Z,99045.66
2023-04-09T19:21:47.703Z,99046.13
2023-04-09T19:24:14.677Z,99042.34
2023-04-09T19:26:41.603Z,99038.44
2023-04-09T19:29:08.877Z,99040.59
2023-04-09T19:31:36.089Z,99043.06
2023-04-09T19:34:03.063Z,99042.84
2023-04-09T19:36:32.326Z,99044.63
2023-04-09T19:38:59.294Z,99046.91
2023-04-09T19:41:26.276Z,99048.09
2023-04-09T19:43:53.218Z,99040.06
2023-04-09T19:46:20.283Z,99049.09
2023-04-09T19:48:48.135Z,99051.56
2023-04-09T19:51:20.023Z,99044.50
2023-04-09T19:53:48.017Z,99043.28
2023-04-09T19:56:16.098Z,99042.06
2023-04-09T19:58:44.367Z,99046.72
2023-04-09T20:01:12.130Z,99041.13
2023-04-09T20:03:39.189Z,99049.41
2023-04-09T20:06:10.512Z,99044.31
2023-04-09T20:08:38.047Z,99043.66
2023-04-09T20:11:05.616Z,99043.06
2023-04-09T20:13:33.172Z,99042.75
2023-04-09T20:16:00.624Z,99045.66
2023-04-09T20:18:28.593Z,99044.09
2023-04-09T20:20:55.571Z,99038.78
2023-04-09T20:23:22.974Z,99046.81
2023-04-09T20:25:56.803Z,99050.34
2023-04-09T20:28:24.187Z,99048.31
2023-04-09T20:30:51.145Z,99043.81
2023-04-09T20:33:18.587Z,99041.53
2023-04-09T20:35:45.723Z,99040.78
2023-04-09T20:38:12.761Z,99045.03
2023-04-09T20:40:39.734Z,99042.94
2023-04-09T20:43:06.712Z,99050.06
2023-04-09T20:45:33.873Z,99049.59
2023-04-09T20:48:01.484Z,99051.50
2023-04-09T20:50:28.870Z,99056.50
2023-04-09T20:52:56.055Z,99053.25
2023-04-09T20:55:25.370Z,99058.41
2023-04-09T20:57:55.457Z,99058.88
2023-04-09T21:00:23.047Z,99058.72
2023-04-09T21:02:50.326Z,99058.53
2023-04-09T21:05:23.590Z,99050.66
2023-04-09T21:07:55.614Z,99045.72
2023-04-09T21:10:22.669Z,99043.03
2023-04-09T21:12:49.726Z,99046.31
2023-04-09T21:15:16.863Z,99052.22
2023-04-09T21:17:43.913Z,99041.56
2023-04-09T21:20:11.715Z,99051.41
2023-04-09T21:22:38.677Z,99052.44
2023-04-09T21:25:06.445Z,99056.09
2023-04-09T21:27:33.446Z,99052.22
2023-04-09T21:30:00.601Z,99050.00
2023-04-09T21:32:28.008Z,99042.22
2023-04-09T21:34:55.378Z,99040.63
2023-04-09T21:37:22.654Z,99045.69
2023-04-09T21:39:49.727Z,99037.75
2023-04-09T21:42:16.877Z,99043.31
2023-04-09T21:44:43.840Z,99045.34
2023-04-09T21:47:12.161Z,99031.97
2023-04-09T21:49:40.451Z,99030.19
2023-04-09T21:52:14.377Z,99041.56
2023-04-09T21:54:43.213Z,99036.78
2023-04-09T21:57:11.431Z,99042.13
2023-04-09T21:59:40.963Z,99038.00
2023-04-09T22:02:08.957Z,99039.25
2023-04-09T22:04:36.072Z,99033.22
2023-04-09T22:07:03.717Z,99032.97
2023-04-09T22:09:31.480Z,99035.34
2023-04-09T22:11:59.634Z,99037.94
2023-04-09T22:14:29.373Z,99041.56
2023-04-09T22:16:58.249Z,99045.88
2023-04-09T22:19:26.150Z,99044.63
2023-04-09T22:21:53.514Z,99046.28
2023-04-09T22:24:27.220Z,99044.97
2023-04-09T22:26:54.263Z,99056.25
2023-04-09T22:29:21.322Z,99044.81
2023-04-09T22:31:48.319Z,99046.06
2023-04-09T22:34:21.459Z,99039.28
2023-04-09T22:36:49.098Z,99035.97
2023-04-09T22:39:16.100Z,99041.00
2023-04-09T22:41:43.230Z,99030.19
2023-04-09T22:44:10.524Z,99026.13
2023-04-09T22:46:37.783Z,99019.75
2023-04-09T22:49:05.874Z,99024.94
2023-04-09T22:51:36.500Z,99020.25
2023-04-09T22:54:03.788Z,99026.63
2023-04-09T22:56:31.909Z,99026.78
2023-04-09T22:58:59.290Z,99033.53
2023-04-09T23:01:27.581Z,99019.22
2023-04-09T23:03:55.465Z,99019.03
2023-04-09T23:06:22.696Z,99004.16
2023-04-09T23:08:50.550Z,99017.91
2023-04-09T23:11:17.828Z,99013.19
2023-04-09T23:13:45.351Z,99003.88
2023-04-09T23:16:13.352Z,99017.78
2023-04-09T23:18:40.721Z,99011.50
2023-04-09T23:21:09.087Z,99010.34
2023-04-09T23:23:37.657Z,99015.16
2023-04-09T23:26:05.330Z,99015.03
2023-04-09T23:28:32.371Z,99010.91
2023-04-09T23:30:59.420Z,99007.69
2023-04-09T23:33:26.602Z,99001.31
2023-04-09T23:35:53.768Z,98994.38
2023-04-09T23:38:20.701Z,98999.63
2023-04-09T23:40:49.291Z,98997.38
2023-04-09T23:43:16.472Z,98993.66
2023-04-09T23:45:44.489Z,99000.94
2023-04-09T23:48:12.391Z,99009.38
2023-04-09T23:50:41.145Z,99000.09
2023-04-09T23:53:08.337Z,99008.97
2023-04-09T23:55:40.745Z,99001.50
2023-04-09T23:58:08.446Z,98996.75
